Malaga, Spain
Current Conditions -  °F | °C
As of 8:30 PM on Thursday 27 Nov 2014 (Local Time) from LEMG Reporting Station
Broken Clouds Broken Clouds  
Wind Chill: 57°   Ceiling: 5000
Heat Index: 57°   Visibility: 6mi
Dew Point: 50°   Wind: 1mph
Humidity: 77%   Direction: 140°SE
Pressure: 29.41"   Gusts: NA
Location:  36.72°N, 4.42°W
Report Text: LEMG 271930Z 14001KT 9999 FEW030 BKN050 14/10 Q0996 NOSIG
Loading
Personal Weather Stations






























Interactive Weather Map New forecast layout! Learn more

10-Day Weather Forecast

Advertisements
Track Severe Weather on mobile